createdAt,value
2024-01-30T00:00:07.098Z,4.730
2024-01-30T00:01:07.090Z,4.754
2024-01-30T00:02:07.089Z,4.754
2024-01-30T00:03:07.045Z,4.754
2024-01-30T00:04:07.098Z,4.730
2024-01-30T00:05:07.087Z,4.730
2024-01-30T00:06:07.092Z,4.730
2024-01-30T00:07:07.109Z,4.730
2024-01-30T00:08:07.143Z,4.730
2024-01-30T00:09:07.102Z,4.706
2024-01-30T00:10:07.202Z,4.669
2024-01-30T00:11:07.103Z,4.669
2024-01-30T00:12:07.106Z,4.669
2024-01-30T00:13:07.135Z,4.688
2024-01-30T00:14:07.185Z,4.688
2024-01-30T00:15:07.128Z,4.688
2024-01-30T00:16:07.202Z,4.669
2024-01-30T00:17:07.157Z,4.669
2024-01-30T00:18:07.197Z,4.632
2024-01-30T00:19:07.270Z,4.669
2024-01-30T00:20:07.361Z,4.669
2024-01-30T00:21:07.195Z,4.632
2024-01-30T00:22:07.218Z,4.669
2024-01-30T00:23:07.201Z,4.632
2024-01-30T00:24:07.234Z,4.632
2024-01-30T00:25:07.255Z,4.608
2024-01-30T00:26:07.214Z,4.645
2024-01-30T00:27:07.222Z,4.608
2024-01-30T00:28:07.272Z,4.608
2024-01-30T00:29:07.237Z,4.590
2024-01-30T00:30:07.251Z,4.608
2024-01-30T00:31:07.326Z,4.553
2024-01-30T00:32:07.318Z,4.553
2024-01-30T00:33:07.345Z,4.553
2024-01-30T00:34:07.341Z,4.553
2024-01-30T00:35:07.406Z,4.571
2024-01-30T00:36:07.291Z,4.571
2024-01-30T00:37:07.335Z,4.590
2024-01-30T00:38:07.299Z,4.590
2024-01-30T00:39:07.355Z,4.590
2024-01-30T00:40:07.587Z,4.566
2024-01-30T00:41:07.336Z,4.566
2024-01-30T00:42:07.344Z,4.566
2024-01-30T00:43:07.374Z,4.566
2024-01-30T00:44:07.354Z,4.566
2024-01-30T00:45:07.367Z,4.529
2024-01-30T00:46:07.422Z,4.529
2024-01-30T00:47:07.377Z,4.529
2024-01-30T00:48:07.439Z,4.529
2024-01-30T00:49:07.500Z,4.529
2024-01-30T00:50:07.391Z,4.505
2024-01-30T00:51:07.391Z,4.505
2024-01-30T00:52:07.449Z,4.505
2024-01-30T00:53:07.423Z,4.505
2024-01-30T00:54:07.426Z,4.505
2024-01-30T00:55:07.473Z,4.505
2024-01-30T00:56:07.453Z,4.505
2024-01-30T00:57:07.476Z,4.505
2024-01-30T00:59:07.472Z,4.505
2024-01-30T01:00:07.473Z,4.505
2024-01-30T01:01:07.559Z,4.505
2024-01-30T01:02:07.512Z,4.505
2024-01-30T01:03:07.512Z,4.482
2024-01-30T01:04:07.537Z,4.482
2024-01-30T01:05:07.527Z,4.482
2024-01-30T01:06:07.566Z,4.482
2024-01-30T01:07:07.700Z,4.445
2024-01-30T01:08:07.559Z,4.445
2024-01-30T01:09:07.585Z,4.445
2024-01-30T01:10:07.831Z,4.445
2024-01-30T01:11:07.590Z,4.445
2024-01-30T01:12:07.581Z,4.445
2024-01-30T01:13:07.669Z,4.445
2024-01-30T01:14:07.588Z,4.445
2024-01-30T01:15:07.603Z,4.445
2024-01-30T01:16:07.662Z,4.445
2024-01-30T01:17:07.610Z,4.445
2024-01-30T01:18:07.679Z,4.445
2024-01-30T01:19:07.756Z,4.445
2024-01-30T01:20:07.705Z,4.445
2024-01-30T01:21:07.669Z,4.445
2024-01-30T01:22:07.688Z,4.445
2024-01-30T01:23:07.681Z,4.445
2024-01-30T01:24:07.680Z,4.445
2024-01-30T01:25:07.706Z,4.445
2024-01-30T01:26:07.676Z,4.384
2024-01-30T01:27:07.695Z,4.347
2024-01-30T01:28:07.685Z,4.365
2024-01-30T01:29:07.690Z,4.365
2024-01-30T01:30:07.706Z,4.347
2024-01-30T01:31:07.806Z,4.365
2024-01-30T01:32:07.727Z,4.328
2024-01-30T01:33:07.966Z,4.365
2024-01-30T01:34:07.816Z,4.347
2024-01-30T01:35:07.969Z,4.384
2024-01-30T01:36:07.781Z,4.347
2024-01-30T01:37:07.836Z,4.365
2024-01-30T01:38:07.777Z,4.304
2024-01-30T01:39:07.770Z,4.304
2024-01-30T01:40:07.833Z,4.304
2024-01-30T01:41:07.832Z,4.304
2024-01-30T01:42:07.789Z,4.347
2024-01-30T01:43:07.885Z,4.286
2024-01-30T01:44:07.812Z,4.286
2024-01-30T01:45:07.813Z,4.267
2024-01-30T01:46:07.877Z,4.249
2024-01-30T01:47:07.851Z,4.286
2024-01-30T01:48:07.897Z,4.286
2024-01-30T01:49:07.955Z,4.267
2024-01-30T01:50:07.985Z,4.267
2024-01-30T01:51:07.920Z,4.286
2024-01-30T01:52:07.894Z,4.267
2024-01-30T01:53:07.850Z,4.262
2024-01-30T01:54:07.858Z,4.243
2024-01-30T01:55:07.900Z,4.262
2024-01-30T01:56:07.885Z,4.262
2024-01-30T01:57:07.904Z,4.262
2024-01-30T01:58:07.930Z,4.243
2024-01-30T01:59:07.931Z,4.262
2024-01-30T02:00:07.922Z,4.262
2024-01-30T02:01:08.017Z,4.262
2024-01-30T02:02:07.932Z,4.262
2024-01-30T02:03:08.005Z,4.262
2024-01-30T02:04:08.123Z,4.238
2024-01-30T02:05:07.982Z,4.262
2024-01-30T02:06:07.963Z,4.262
2024-01-30T02:07:08.079Z,4.262
2024-01-30T02:08:08.207Z,4.262
2024-01-30T02:09:07.990Z,4.262
2024-01-30T02:10:08.067Z,4.262
2024-01-30T02:11:08.021Z,4.244
2024-01-30T02:12:08.016Z,4.238
2024-01-30T02:13:08.094Z,4.262
2024-01-30T02:14:08.049Z,4.238
2024-01-30T02:15:08.059Z,4.183
2024-01-30T02:16:08.060Z,4.183
2024-01-30T02:17:08.056Z,4.207
2024-01-30T02:18:08.121Z,4.207
2024-01-30T02:19:08.170Z,4.207
2024-01-30T02:20:08.235Z,4.207
2024-01-30T02:21:08.097Z,4.207
2024-01-30T02:22:08.147Z,4.207
2024-01-30T02:23:08.106Z,4.244
2024-01-30T02:24:08.113Z,4.244
2024-01-30T02:25:08.167Z,4.207
2024-01-30T02:26:08.138Z,4.207
2024-01-30T02:27:08.128Z,4.207
2024-01-30T02:28:08.178Z,4.207
2024-01-30T02:29:08.147Z,4.207
2024-01-30T02:30:08.172Z,4.207
2024-01-30T02:31:08.177Z,4.188
2024-01-30T02:32:08.155Z,4.207
2024-01-30T02:33:08.187Z,4.207
2024-01-30T02:34:08.222Z,4.188
2024-01-30T02:35:08.217Z,4.188
2024-01-30T02:36:08.220Z,4.188
2024-01-30T02:37:08.239Z,4.188
2024-01-30T02:38:08.213Z,4.225
2024-01-30T02:39:08.228Z,4.225
2024-01-30T02:40:08.270Z,4.225
2024-01-30T02:41:08.244Z,4.225
2024-01-30T02:42:08.241Z,4.175
2024-01-30T02:43:08.250Z,4.212
2024-01-30T02:44:08.250Z,4.249
2024-01-30T02:45:08.266Z,4.212
2024-01-30T02:46:08.344Z,4.212
2024-01-30T02:47:08.282Z,4.230
2024-01-30T02:48:08.331Z,4.230
2024-01-30T02:49:08.366Z,4.230
2024-01-30T02:50:08.382Z,4.230
2024-01-30T02:51:08.314Z,4.254
2024-01-30T02:52:08.337Z,4.254
2024-01-30T02:53:08.324Z,4.236
2024-01-30T02:54:08.332Z,4.236
2024-01-30T02:55:08.432Z,4.254
2024-01-30T02:56:08.333Z,4.254
2024-01-30T02:57:08.346Z,4.230
2024-01-30T02:58:08.393Z,4.230
2024-01-30T02:59:08.366Z,4.175
2024-01-30T03:00:08.389Z,4.175
2024-01-30T03:01:08.501Z,4.175
2024-01-30T03:02:08.467Z,4.175
2024-01-30T03:03:08.398Z,4.175
2024-01-30T03:04:08.493Z,4.151
2024-01-30T03:05:08.412Z,4.175
2024-01-30T03:06:08.444Z,4.151
2024-01-30T03:07:08.490Z,4.151
2024-01-30T03:08:08.591Z,4.151
2024-01-30T03:09:08.435Z,4.151
2024-01-30T03:10:08.480Z,4.151
2024-01-30T03:11:08.452Z,4.151
2024-01-30T03:12:11.377Z,4.151
2024-01-30T03:13:08.532Z,4.151
2024-01-30T03:14:08.491Z,4.151
2024-01-30T03:15:08.513Z,4.151
2024-01-30T03:16:08.518Z,4.151
2024-01-30T03:17:08.510Z,4.175
2024-01-30T03:18:08.560Z,4.175
2024-01-30T03:19:08.631Z,4.175
2024-01-30T03:20:08.569Z,4.151
2024-01-30T03:21:08.526Z,4.151
2024-01-30T03:22:08.584Z,4.151
2024-01-30T03:23:08.577Z,4.151
2024-01-30T03:24:08.577Z,4.127
2024-01-30T03:25:08.733Z,4.151
2024-01-30T03:26:08.580Z,4.151
2024-01-30T03:27:08.615Z,4.127
2024-01-30T03:28:08.618Z,4.090
2024-01-30T03:29:08.615Z,4.090
2024-01-30T03:30:08.613Z,4.090
2024-01-30T03:31:08.699Z,4.090
2024-01-30T03:32:08.626Z,4.090
2024-01-30T03:33:08.693Z,4.066
2024-01-30T03:34:08.757Z,4.066
2024-01-30T03:35:08.676Z,4.066
2024-01-30T03:36:08.664Z,4.066
2024-01-30T03:37:08.746Z,4.066
2024-01-30T03:38:08.683Z,4.066
2024-01-30T03:39:08.695Z,4.066
2024-01-30T03:40:08.773Z,4.066
2024-01-30T03:41:08.706Z,4.066
2024-01-30T03:42:08.717Z,4.066
2024-01-30T03:43:08.743Z,4.066
2024-01-30T03:44:08.728Z,4.066
2024-01-30T03:45:08.727Z,4.048
2024-01-30T03:46:08.881Z,4.066
2024-01-30T03:47:08.737Z,4.048
2024-01-30T03:48:08.799Z,4.048
2024-01-30T03:49:08.907Z,4.066
2024-01-30T03:50:08.860Z,4.048
2024-01-30T03:51:08.785Z,4.048
2024-01-30T03:52:08.829Z,4.048
2024-01-30T03:53:08.812Z,4.048
2024-01-30T03:54:08.816Z,4.048
2024-01-30T03:55:08.885Z,4.071
2024-01-30T03:56:08.819Z,4.029
2024-01-30T03:57:08.840Z,4.029
2024-01-30T03:58:08.874Z,4.029
2024-01-30T03:59:08.839Z,4.029
2024-01-30T04:00:08.849Z,4.029
2024-01-30T04:01:08.874Z,4.005
2024-01-30T04:02:09.007Z,4.029
2024-01-30T04:03:08.904Z,4.029
2024-01-30T04:04:08.942Z,4.029
2024-01-30T04:05:08.969Z,4.029
2024-01-30T04:06:08.935Z,4.005
2024-01-30T04:07:08.931Z,3.987
2024-01-30T04:08:08.900Z,4.029
2024-01-30T04:09:08.911Z,4.029
2024-01-30T04:10:08.969Z,4.005
2024-01-30T04:11:08.923Z,4.029
2024-01-30T04:12:08.917Z,4.005
2024-01-30T04:13:12.377Z,4.005
2024-01-30T04:14:08.952Z,4.005
2024-01-30T04:15:08.959Z,4.005
2024-01-30T04:16:09.034Z,3.987
2024-01-30T04:17:08.971Z,4.029
2024-01-30T04:18:09.057Z,3.992
2024-01-30T04:19:09.061Z,4.011
2024-01-30T04:20:09.055Z,4.011
2024-01-30T04:21:09.003Z,3.968
2024-01-30T04:22:09.048Z,3.992
2024-01-30T04:23:08.991Z,3.974
2024-01-30T04:24:09.010Z,3.974
2024-01-30T04:25:09.077Z,3.992
2024-01-30T04:26:09.016Z,3.992
2024-01-30T04:27:09.039Z,3.987
2024-01-30T04:28:09.094Z,4.029
2024-01-30T04:29:09.047Z,4.029
2024-01-30T04:30:09.052Z,4.029
2024-01-30T04:31:09.079Z,4.029
2024-01-30T04:32:09.056Z,4.029
2024-01-30T04:33:09.127Z,4.029
2024-01-30T04:34:09.150Z,4.029
2024-01-30T04:35:11.786Z,4.029
2024-01-30T04:36:09.071Z,4.005
2024-01-30T04:37:09.122Z,3.968
2024-01-30T04:38:09.091Z,3.968
2024-01-30T04:39:09.107Z,4.005
2024-01-30T04:40:09.154Z,4.005
2024-01-30T04:41:09.145Z,4.005
2024-01-30T04:42:09.902Z,4.005
2024-01-30T04:43:09.170Z,4.005
2024-01-30T04:44:09.144Z,3.982
2024-01-30T04:45:09.155Z,3.982
2024-01-30T04:46:09.178Z,3.982
2024-01-30T04:47:09.159Z,3.982
2024-01-30T04:48:09.222Z,4.005
2024-01-30T04:49:09.472Z,4.005
2024-01-30T04:50:09.257Z,4.005
2024-01-30T04:51:09.201Z,4.005
2024-01-30T04:52:09.252Z,4.005
2024-01-30T04:53:09.270Z,4.005
2024-01-30T04:54:09.242Z,3.987
2024-01-30T04:55:09.372Z,4.005
2024-01-30T04:56:09.240Z,4.005
2024-01-30T04:57:09.251Z,3.987
2024-01-30T04:58:09.334Z,3.968
2024-01-30T04:59:09.258Z,4.005
2024-01-30T05:00:09.265Z,3.968
2024-01-30T05:01:09.372Z,3.968
2024-01-30T05:02:09.475Z,4.005
2024-01-30T05:03:09.289Z,3.968
2024-01-30T05:04:10.464Z,3.963
2024-01-30T05:05:09.469Z,3.963
2024-01-30T05:06:09.370Z,3.926
2024-01-30T05:07:09.343Z,3.963
2024-01-30T05:08:09.325Z,3.889
2024-01-30T05:09:09.330Z,3.889
2024-01-30T05:10:09.375Z,3.908
2024-01-30T05:11:09.352Z,3.889
2024-01-30T05:12:09.367Z,3.907
2024-01-30T05:13:09.386Z,3.926
2024-01-30T05:14:09.363Z,3.950
2024-01-30T05:15:09.375Z,3.950
2024-01-30T05:16:09.409Z,3.950
2024-01-30T05:17:09.391Z,3.950
2024-01-30T05:18:09.507Z,3.950
2024-01-30T05:19:09.487Z,3.926
2024-01-30T05:20:09.459Z,3.894
2024-01-30T05:21:09.443Z,3.913
2024-01-30T05:22:09.454Z,3.894
2024-01-30T05:23:09.446Z,3.870
2024-01-30T05:24:09.461Z,3.889
2024-01-30T05:25:09.521Z,3.889
2024-01-30T05:26:09.469Z,3.889
2024-01-30T05:27:09.471Z,3.889
2024-01-30T05:28:09.520Z,3.913
2024-01-30T05:29:09.486Z,3.894
2024-01-30T05:30:09.504Z,3.913
2024-01-30T05:31:09.548Z,3.894
2024-01-30T05:32:09.520Z,3.894
2024-01-30T05:33:09.654Z,3.913
2024-01-30T05:34:09.611Z,3.894
2024-01-30T05:35:09.564Z,3.913
2024-01-30T05:36:09.559Z,3.931
2024-01-30T05:37:09.653Z,3.931
2024-01-30T05:38:09.575Z,3.950
2024-01-30T05:39:09.585Z,3.950
2024-01-30T05:40:09.636Z,3.968
2024-01-30T05:41:09.577Z,3.974
2024-01-30T05:42:09.590Z,3.974
2024-01-30T05:43:09.639Z,3.974
2024-01-30T05:44:09.614Z,3.974
2024-01-30T05:45:09.614Z,3.974
2024-01-30T05:46:09.650Z,3.974
2024-01-30T05:47:09.635Z,3.974
2024-01-30T05:48:09.672Z,3.974
2024-01-30T05:49:09.720Z,3.974
2024-01-30T05:50:09.675Z,3.974
2024-01-30T05:51:09.760Z,3.992
2024-01-30T05:52:09.731Z,3.974
2024-01-30T05:53:09.662Z,3.974
2024-01-30T05:54:09.670Z,3.992
2024-01-30T05:55:09.754Z,3.992
2024-01-30T05:56:09.706Z,3.937
2024-01-30T05:57:09.713Z,3.937
2024-01-30T05:58:09.727Z,3.937
2024-01-30T05:59:09.718Z,3.937
2024-01-30T06:00:09.736Z,3.960
2024-01-30T06:01:09.959Z,3.937
2024-01-30T06:02:09.917Z,3.955
2024-01-30T06:03:09.753Z,3.955
2024-01-30T06:04:09.840Z,3.937
2024-01-30T06:05:09.831Z,3.937
2024-01-30T06:06:09.769Z,3.955
2024-01-30T06:07:09.850Z,3.918
2024-01-30T06:08:09.858Z,3.937
2024-01-30T06:09:09.793Z,3.955
2024-01-30T06:10:09.878Z,3.937
2024-01-30T06:11:09.805Z,3.937
2024-01-30T06:12:09.802Z,3.937
2024-01-30T06:13:09.841Z,3.955
2024-01-30T06:14:09.840Z,3.992
2024-01-30T06:15:09.824Z,3.974
2024-01-30T06:16:09.850Z,3.992
2024-01-30T06:17:09.826Z,3.992
2024-01-30T06:18:09.935Z,3.992
2024-01-30T06:19:09.889Z,3.974
2024-01-30T06:20:09.920Z,3.992
2024-01-30T06:21:12.955Z,3.992
2024-01-30T06:22:09.920Z,3.974
2024-01-30T06:23:09.866Z,3.974
2024-01-30T06:24:09.882Z,3.992
2024-01-30T06:25:09.895Z,3.992
2024-01-30T06:26:09.884Z,3.974
2024-01-30T06:27:09.892Z,3.968
2024-01-30T06:28:09.909Z,3.992
2024-01-30T06:29:09.902Z,3.931
2024-01-30T06:30:09.922Z,3.913
2024-01-30T06:31:09.948Z,3.913
2024-01-30T06:32:09.930Z,3.913
2024-01-30T06:33:10.045Z,3.913
2024-01-30T06:34:10.053Z,3.889
2024-01-30T06:35:10.008Z,3.908
2024-01-30T06:36:10.006Z,3.889
2024-01-30T06:37:10.034Z,3.870
2024-01-30T06:38:09.997Z,3.908
2024-01-30T06:39:10.008Z,3.889
2024-01-30T06:40:10.045Z,3.870
2024-01-30T06:41:10.000Z,3.889
2024-01-30T06:42:10.025Z,3.889
2024-01-30T06:43:10.036Z,3.889
2024-01-30T06:44:10.032Z,3.889
2024-01-30T06:45:10.034Z,3.889
2024-01-30T06:46:10.080Z,3.870
2024-01-30T06:47:10.046Z,3.852
2024-01-30T06:48:10.060Z,3.833
2024-01-30T06:49:10.116Z,3.857
2024-01-30T06:50:10.136Z,3.894
2024-01-30T06:51:10.088Z,3.913
2024-01-30T06:52:10.098Z,3.913
2024-01-30T06:53:10.087Z,3.950
2024-01-30T06:54:10.101Z,3.950
2024-01-30T06:55:10.157Z,3.950
2024-01-30T06:56:10.105Z,3.950
2024-01-30T06:57:10.129Z,3.950
2024-01-30T06:58:10.162Z,3.950
2024-01-30T06:59:10.139Z,3.950
2024-01-30T07:00:10.150Z,3.974
2024-01-30T07:01:10.256Z,3.974
2024-01-30T07:02:10.239Z,3.974
2024-01-30T07:03:10.177Z,3.974
2024-01-30T07:04:10.341Z,3.974
2024-01-30T07:05:10.324Z,4.011
2024-01-30T07:06:10.220Z,4.029
2024-01-30T07:07:10.342Z,4.029
2024-01-30T07:08:10.205Z,4.011
2024-01-30T07:09:10.199Z,4.029
2024-01-30T07:10:10.459Z,4.029
2024-01-30T07:11:10.315Z,4.053
2024-01-30T07:12:10.231Z,4.029
2024-01-30T07:13:10.293Z,4.053
2024-01-30T07:14:10.248Z,4.053
2024-01-30T07:15:10.259Z,4.053
2024-01-30T07:16:10.279Z,4.053
2024-01-30T07:17:10.265Z,4.053
2024-01-30T07:18:10.309Z,4.053
2024-01-30T07:19:10.397Z,4.077
2024-01-30T07:20:12.641Z,4.077
2024-01-30T07:21:10.284Z,4.077
2024-01-30T07:22:10.304Z,4.058
2024-01-30T07:23:10.300Z,4.077
2024-01-30T07:24:10.317Z,4.058
2024-01-30T07:25:10.375Z,4.082
2024-01-30T07:26:10.338Z,4.082
2024-01-30T07:27:10.345Z,4.082
2024-01-30T07:28:10.442Z,4.100
2024-01-30T07:29:10.372Z,4.100
2024-01-30T07:30:10.378Z,4.100
2024-01-30T07:31:10.404Z,4.119
2024-01-30T07:32:10.385Z,4.162
2024-01-30T07:33:10.486Z,4.143
2024-01-30T07:34:10.515Z,4.185
2024-01-30T07:35:10.622Z,4.185
2024-01-30T07:36:10.419Z,4.167
2024-01-30T07:37:10.477Z,4.185
2024-01-30T07:38:10.451Z,4.167
2024-01-30T07:39:10.451Z,4.167
2024-01-30T07:40:10.530Z,4.185
2024-01-30T07:41:10.458Z,4.190
2024-01-30T07:42:10.468Z,4.190
2024-01-30T07:43:10.633Z,4.190
2024-01-30T07:44:10.475Z,4.190
2024-01-30T07:45:10.489Z,4.270
2024-01-30T07:46:10.558Z,4.270
2024-01-30T07:47:10.480Z,4.294
2024-01-30T07:48:10.600Z,4.294
2024-01-30T07:49:10.547Z,4.294
2024-01-30T07:50:10.632Z,4.318
2024-01-30T07:51:10.528Z,4.318
2024-01-30T07:52:10.601Z,4.336
2024-01-30T07:53:10.535Z,4.360
2024-01-30T07:54:10.544Z,4.378
2024-01-30T07:55:10.585Z,4.360
2024-01-30T07:56:10.564Z,4.402
2024-01-30T07:57:10.573Z,4.402
2024-01-30T07:58:10.617Z,4.402
2024-01-30T07:59:10.579Z,4.426
2024-01-30T08:00:10.586Z,4.426
2024-01-30T08:01:10.689Z,4.426
2024-01-30T08:02:10.666Z,4.450
2024-01-30T08:03:10.613Z,4.450
2024-01-30T08:04:10.727Z,4.492
2024-01-30T08:05:10.658Z,4.511
2024-01-30T08:06:10.660Z,4.534
2024-01-30T08:07:10.803Z,4.534
2024-01-30T08:08:10.647Z,4.558
2024-01-30T08:09:10.651Z,4.582
2024-01-30T08:10:10.781Z,4.624
2024-01-30T08:11:10.670Z,4.648
2024-01-30T08:12:10.666Z,4.667
2024-01-30T08:13:10.702Z,4.667
2024-01-30T08:14:10.689Z,4.690
2024-01-30T08:15:10.705Z,4.714
2024-01-30T08:16:12.902Z,4.714
2024-01-30T08:17:10.715Z,4.794
2024-01-30T08:18:10.742Z,4.794
2024-01-30T08:19:10.779Z,4.818
2024-01-30T08:20:10.876Z,4.818
2024-01-30T08:21:10.733Z,4.823
2024-01-30T08:22:10.855Z,4.860
2024-01-30T08:23:10.751Z,4.860
2024-01-30T08:24:10.745Z,4.860
2024-01-30T08:25:10.824Z,4.860
2024-01-30T08:26:10.778Z,4.921
2024-01-30T08:27:10.833Z,4.921
2024-01-30T08:28:11.056Z,4.939
2024-01-30T08:29:11.054Z,4.963
2024-01-30T08:30:10.807Z,4.963
2024-01-30T08:31:10.843Z,4.963
2024-01-30T08:32:10.858Z,5.005
2024-01-30T08:33:10.889Z,5.005
2024-01-30T08:34:10.921Z,5.005
2024-01-30T08:35:10.989Z,5.042
2024-01-30T08:36:10.844Z,5.042
2024-01-30T08:37:10.886Z,5.042
2024-01-30T08:38:10.855Z,5.066
2024-01-30T08:39:10.880Z,5.103
2024-01-30T08:40:10.898Z,5.103
2024-01-30T08:41:10.897Z,5.103
2024-01-30T08:42:10.891Z,5.085
2024-01-30T08:43:10.935Z,5.108
2024-01-30T08:44:10.906Z,5.145
2024-01-30T08:45:10.909Z,5.164
2024-01-30T08:46:10.976Z,5.206
2024-01-30T08:47:10.925Z,5.230
2024-01-30T08:48:11.020Z,5.310
2024-01-30T08:49:11.036Z,5.333
2024-01-30T08:50:11.041Z,5.375
2024-01-30T08:51:10.948Z,5.399
2024-01-30T08:52:11.018Z,5.466
2024-01-30T08:53:10.976Z,5.508
2024-01-30T08:54:11.010Z,5.556
2024-01-30T08:55:11.029Z,5.561
2024-01-30T08:56:11.017Z,5.627
2024-01-30T08:57:11.010Z,5.693
2024-01-30T08:58:11.067Z,5.717
2024-01-30T08:59:12.595Z,5.764
2024-01-30T09:00:11.025Z,5.807
2024-01-30T09:01:11.078Z,5.849
2024-01-30T09:02:12.770Z,5.910
2024-01-30T09:03:11.056Z,5.892
2024-01-30T09:04:11.155Z,5.952
2024-01-30T09:05:11.259Z,5.971
2024-01-30T09:06:11.077Z,5.995
2024-01-30T09:07:11.608Z,5.995
2024-01-30T09:08:11.208Z,6.037
2024-01-30T09:09:11.104Z,6.061
2024-01-30T09:10:13.912Z,6.079
2024-01-30T09:11:11.116Z,6.103
2024-01-30T09:12:11.106Z,6.145
2024-01-30T09:13:11.156Z,6.169
2024-01-30T09:14:11.116Z,6.217
2024-01-30T09:15:11.130Z,6.264
2024-01-30T09:16:11.210Z,6.368
2024-01-30T09:17:11.168Z,6.415
2024-01-30T09:18:11.280Z,6.463
2024-01-30T09:19:11.252Z,6.511
2024-01-30T09:20:11.257Z,6.540
2024-01-30T09:21:11.176Z,6.600
2024-01-30T09:22:11.215Z,6.648
2024-01-30T09:23:11.193Z,6.690
2024-01-30T09:24:11.208Z,6.775
2024-01-30T09:25:11.329Z,6.860
2024-01-30T09:26:11.218Z,6.902
2024-01-30T09:27:11.226Z,6.926
2024-01-30T09:28:11.246Z,6.950
2024-01-30T09:29:11.248Z,7.029
2024-01-30T09:30:11.294Z,7.053
2024-01-30T09:31:11.314Z,7.053
2024-01-30T09:32:11.293Z,7.053
2024-01-30T09:33:11.383Z,7.071
2024-01-30T09:34:11.396Z,7.090
2024-01-30T09:35:11.418Z,7.090
2024-01-30T09:36:11.287Z,7.090
2024-01-30T09:37:11.337Z,7.090
2024-01-30T09:38:11.305Z,7.151
2024-01-30T09:39:11.323Z,7.127
2024-01-30T09:40:11.558Z,7.145
2024-01-30T09:41:11.342Z,7.164
2024-01-30T09:42:11.356Z,7.140
2024-01-30T09:43:11.367Z,7.140
2024-01-30T09:44:11.358Z,7.116
2024-01-30T09:45:11.365Z,7.130
2024-01-30T09:46:11.425Z,7.148
2024-01-30T09:47:11.377Z,7.124
2024-01-30T09:48:11.395Z,7.124
2024-01-30T09:49:11.401Z,7.119
2024-01-30T09:50:11.459Z,7.119
2024-01-30T09:51:11.388Z,7.095
2024-01-30T09:52:11.439Z,7.132
2024-01-30T09:53:11.453Z,7.108
2024-01-30T09:54:11.421Z,7.108
2024-01-30T09:55:11.552Z,7.085
2024-01-30T09:56:11.438Z,7.085
2024-01-30T09:57:11.448Z,7.061
2024-01-30T09:58:11.506Z,7.061
2024-01-30T09:59:11.497Z,7.116
2024-01-30T10:00:11.474Z,7.116
2024-01-30T10:01:11.524Z,7.093
2024-01-30T10:02:11.488Z,7.093
2024-01-30T10:03:11.474Z,7.093
2024-01-30T10:04:11.598Z,7.093
2024-01-30T10:05:11.565Z,7.093
2024-01-30T10:06:11.504Z,7.093
2024-01-30T10:07:11.584Z,7.093
2024-01-30T10:08:11.792Z,7.116
2024-01-30T10:09:11.530Z,7.116
2024-01-30T10:10:11.612Z,7.140
2024-01-30T10:11:11.547Z,7.140
2024-01-30T10:12:11.556Z,7.164
2024-01-30T10:13:11.605Z,7.164
2024-01-30T10:14:11.572Z,7.164
2024-01-30T10:15:11.586Z,7.164
2024-01-30T10:16:11.605Z,7.349
2024-01-30T10:17:17.610Z,7.386
2024-01-30T10:18:11.643Z,7.386
2024-01-30T10:19:11.678Z,7.386
2024-01-30T10:20:11.837Z,7.405
2024-01-30T10:21:11.624Z,7.429
2024-01-30T10:22:11.682Z,7.410
2024-01-30T10:23:11.633Z,7.410
2024-01-30T10:24:11.650Z,7.429
2024-01-30T10:25:11.675Z,7.429
2024-01-30T10:26:11.658Z,7.452
2024-01-30T10:27:11.670Z,7.452
2024-01-30T10:28:11.700Z,7.452
2024-01-30T10:29:11.667Z,7.452
2024-01-30T10:30:11.692Z,7.452
2024-01-30T10:31:11.702Z,7.476
2024-01-30T10:32:11.691Z,7.476
2024-01-30T10:33:11.772Z,7.500
2024-01-30T10:34:19.509Z,7.500
2024-01-30T10:35:11.853Z,7.505
2024-01-30T10:36:11.737Z,7.548
2024-01-30T10:37:11.755Z,7.548
2024-01-30T10:38:11.741Z,7.571
2024-01-30T10:39:11.742Z,7.701
2024-01-30T10:40:11.824Z,7.701
2024-01-30T10:41:11.763Z,7.725
2024-01-30T10:42:11.772Z,7.744
2024-01-30T10:43:11.854Z,7.749
2024-01-30T10:44:11.964Z,7.791
2024-01-30T10:45:11.815Z,7.815
2024-01-30T10:46:11.907Z,7.839
2024-01-30T10:47:11.809Z,7.863
2024-01-30T10:48:11.895Z,7.886
2024-01-30T10:49:11.882Z,7.929
2024-01-30T10:50:12.085Z,7.952
2024-01-30T10:51:11.849Z,8.019
2024-01-30T10:52:11.884Z,8.000
2024-01-30T10:53:11.851Z,8.024
2024-01-30T10:54:11.867Z,8.048
2024-01-30T10:55:11.911Z,8.066
2024-01-30T10:56:11.868Z,8.090
2024-01-30T10:57:11.890Z,8.114
2024-01-30T10:58:11.920Z,8.138
2024-01-30T10:59:12.309Z,8.138
2024-01-30T11:00:11.916Z,8.162
2024-01-30T11:01:11.983Z,8.162
2024-01-30T11:02:12.022Z,8.185
2024-01-30T11:03:11.932Z,8.185
2024-01-30T11:04:12.009Z,8.209
2024-01-30T11:05:12.014Z,8.209
2024-01-30T11:06:12.005Z,8.209
2024-01-30T11:07:11.965Z,8.209
2024-01-30T11:08:11.982Z,8.209
2024-01-30T11:09:11.964Z,8.209
2024-01-30T11:10:12.039Z,8.209
2024-01-30T11:11:13.393Z,8.209
2024-01-30T11:12:12.001Z,8.227
2024-01-30T11:13:12.109Z,8.227
2024-01-30T11:14:12.020Z,8.264
2024-01-30T11:15:12.038Z,8.251
2024-01-30T11:16:12.056Z,8.251
2024-01-30T11:17:12.036Z,8.251
2024-01-30T11:18:12.097Z,8.288
2024-01-30T11:19:12.112Z,8.312
2024-01-30T11:20:12.050Z,8.336
2024-01-30T11:21:12.057Z,8.336
2024-01-30T11:22:13.030Z,8.360
2024-01-30T11:23:12.064Z,8.360
2024-01-30T11:24:12.077Z,8.791
2024-01-30T11:25:12.119Z,8.791
2024-01-30T11:26:12.220Z,8.815
2024-01-30T11:27:12.241Z,8.773
2024-01-30T11:28:12.141Z,8.773
2024-01-30T11:29:12.116Z,8.791
2024-01-30T11:30:12.118Z,8.767
2024-01-30T11:31:12.140Z,8.743
2024-01-30T11:32:12.129Z,8.719
2024-01-30T11:33:12.254Z,8.738
2024-01-30T11:34:12.210Z,8.733
2024-01-30T11:35:12.221Z,8.727
2024-01-30T11:36:12.149Z,8.783
2024-01-30T11:37:12.186Z,8.801
2024-01-30T11:38:12.171Z,8.801
2024-01-30T11:39:12.186Z,8.741
2024-01-30T11:40:12.224Z,8.741
2024-01-30T11:41:12.198Z,8.735
2024-01-30T11:42:12.211Z,8.711
2024-01-30T11:43:12.222Z,8.688
2024-01-30T11:44:12.213Z,8.669
2024-01-30T11:45:12.207Z,8.664
2024-01-30T11:46:12.245Z,8.640
2024-01-30T11:47:12.230Z,8.640
2024-01-30T11:48:12.444Z,8.640
2024-01-30T11:49:12.316Z,8.733
2024-01-30T11:50:12.388Z,8.733
2024-01-30T11:51:12.248Z,8.709
2024-01-30T11:52:12.290Z,8.690
2024-01-30T11:53:12.279Z,8.709
2024-01-30T11:54:12.282Z,8.741
2024-01-30T11:55:12.305Z,8.741
2024-01-30T11:56:12.290Z,8.722
2024-01-30T11:57:12.296Z,8.722
2024-01-30T11:58:12.315Z,8.717
2024-01-30T11:59:12.311Z,8.754
2024-01-30T12:00:12.314Z,8.736
2024-01-30T12:01:12.395Z,8.730
2024-01-30T12:02:12.430Z,8.730
2024-01-30T12:03:12.351Z,8.711
2024-01-30T12:04:12.464Z,8.693
2024-01-30T12:05:12.359Z,8.749
2024-01-30T12:06:12.405Z,8.767
2024-01-30T12:07:12.438Z,8.786
2024-01-30T12:08:12.395Z,8.762
2024-01-30T12:09:12.377Z,8.762
2024-01-30T12:10:12.468Z,8.762
2024-01-30T12:11:12.386Z,8.762
2024-01-30T12:12:12.398Z,8.781
2024-01-30T12:13:12.442Z,8.818
2024-01-30T12:14:12.409Z,8.818
2024-01-30T12:15:12.438Z,8.836
2024-01-30T12:16:12.451Z,8.836
2024-01-30T12:17:12.449Z,8.836
2024-01-30T12:18:12.728Z,8.836
2024-01-30T12:19:12.549Z,8.818
2024-01-30T12:20:12.642Z,8.818
2024-01-30T12:21:12.454Z,8.794
2024-01-30T12:22:12.502Z,8.849
2024-01-30T12:23:12.468Z,8.849
2024-01-30T12:24:12.479Z,8.826
2024-01-30T12:25:12.598Z,8.844
2024-01-30T12:26:12.499Z,8.844
2024-01-30T12:27:12.504Z,8.826
2024-01-30T12:28:12.575Z,8.826
2024-01-30T12:29:12.521Z,8.826
2024-01-30T12:30:12.527Z,8.802
2024-01-30T12:31:12.615Z,8.802
2024-01-30T12:32:12.550Z,8.802
2024-01-30T12:33:12.581Z,8.838
2024-01-30T12:34:12.611Z,8.815
2024-01-30T12:35:12.773Z,8.833
2024-01-30T12:36:12.673Z,8.833
2024-01-30T12:37:12.615Z,8.833
2024-01-30T12:38:12.589Z,8.833
2024-01-30T12:39:12.603Z,8.833
2024-01-30T12:40:12.642Z,8.833
2024-01-30T12:41:12.625Z,8.833
2024-01-30T12:42:12.636Z,8.828
2024-01-30T12:43:14.265Z,8.828
2024-01-30T12:44:12.652Z,8.847
2024-01-30T12:45:12.663Z,8.865
2024-01-30T12:46:12.727Z,8.847
2024-01-30T12:47:12.670Z,8.847
2024-01-30T12:48:12.739Z,8.847
2024-01-30T12:49:12.797Z,8.847
2024-01-30T12:50:12.690Z,8.828
2024-01-30T12:51:12.704Z,8.865
2024-01-30T12:52:12.743Z,8.889
2024-01-30T12:53:12.725Z,8.908